createdAt,value
2022-10-04T00:00:18.557Z,1007.35
2022-10-04T00:01:18.644Z,1007.27
2022-10-04T00:02:18.549Z,1007.24
2022-10-04T00:03:18.581Z,1007.22
2022-10-04T00:04:18.521Z,1007.23
2022-10-04T00:05:18.509Z,1007.21
2022-10-04T00:06:18.590Z,1007.25
2022-10-04T00:07:18.509Z,1007.24
2022-10-04T00:08:18.501Z,1007.26
2022-10-04T00:09:18.521Z,1007.26
2022-10-04T00:10:18.481Z,1007.30
2022-10-04T00:11:18.490Z,1007.26
2022-10-04T00:12:18.481Z,1007.23
2022-10-04T00:13:18.514Z,1007.31
2022-10-04T00:14:18.461Z,1007.33
2022-10-04T00:15:18.541Z,1007.35
2022-10-04T00:16:18.509Z,1007.35
2022-10-04T00:17:18.453Z,1007.39
2022-10-04T00:18:18.449Z,1007.40
2022-10-04T00:19:18.429Z,1007.40
2022-10-04T00:20:18.417Z,1007.40
2022-10-04T00:21:18.465Z,1007.43
2022-10-04T00:22:18.485Z,1007.38
2022-10-04T00:23:18.388Z,1007.42
2022-10-04T00:24:18.396Z,1007.28
2022-10-04T00:25:18.381Z,1007.30
2022-10-04T00:26:18.388Z,1007.32
2022-10-04T00:27:18.385Z,1007.35
2022-10-04T00:28:18.415Z,1007.36
2022-10-04T00:29:18.362Z,1007.38
2022-10-04T00:30:18.357Z,1007.39
2022-10-04T00:31:18.434Z,1007.39
2022-10-04T00:32:18.345Z,1007.42
2022-10-04T00:33:18.339Z,1007.40
2022-10-04T00:34:18.337Z,1007.39
2022-10-04T00:35:18.317Z,1007.39
2022-10-04T00:36:18.325Z,1007.35
2022-10-04T00:37:18.308Z,1007.27
2022-10-04T00:38:18.325Z,1007.24
2022-10-04T00:39:18.296Z,1007.19
2022-10-04T00:40:18.289Z,1007.19
2022-10-04T00:41:18.276Z,1007.10
2022-10-04T00:42:18.263Z,1007.11
2022-10-04T00:43:18.275Z,1007.09
2022-10-04T00:44:18.260Z,1007.12
2022-10-04T00:45:18.249Z,1007.14
2022-10-04T00:46:18.313Z,1007.13
2022-10-04T00:47:18.319Z,1007.15
2022-10-04T00:48:18.330Z,1007.11
2022-10-04T00:49:18.860Z,1007.04
2022-10-04T00:50:18.236Z,1007.05
2022-10-04T00:51:18.270Z,1007.00
2022-10-04T00:52:18.222Z,1007.03
2022-10-04T00:53:18.953Z,1007.04
2022-10-04T00:54:18.211Z,1006.97
2022-10-04T00:55:18.198Z,1007.02
2022-10-04T00:56:18.194Z,1006.98
2022-10-04T00:57:18.179Z,1006.93
2022-10-04T00:58:18.185Z,1006.94
2022-10-04T00:59:18.214Z,1006.92
2022-10-04T01:00:18.159Z,1006.96
2022-10-04T01:01:18.241Z,1006.90
2022-10-04T01:02:18.304Z,1006.95
2022-10-04T01:03:18.160Z,1006.92
2022-10-04T01:04:18.145Z,1006.92
2022-10-04T01:05:18.154Z,1006.89
2022-10-04T01:06:18.146Z,1006.91
2022-10-04T01:07:18.122Z,1006.95
2022-10-04T01:08:18.166Z,1006.94
2022-10-04T01:09:18.142Z,1006.91
2022-10-04T01:10:18.134Z,1006.95
2022-10-04T01:11:18.109Z,1006.91
2022-10-04T01:12:18.090Z,1006.99
2022-10-04T01:13:18.077Z,1007.02
2022-10-04T01:14:18.085Z,1007.06
2022-10-04T01:15:18.078Z,1006.99
2022-10-04T01:16:18.186Z,1006.99
2022-10-04T01:17:18.055Z,1006.99
2022-10-04T01:18:18.078Z,1007.04
2022-10-04T01:19:18.147Z,1007.00
2022-10-04T01:20:18.033Z,1007.02
2022-10-04T01:21:18.046Z,1006.94
2022-10-04T01:22:18.051Z,1006.86
2022-10-04T01:23:18.023Z,1006.81
2022-10-04T01:24:18.065Z,1006.81
2022-10-04T01:25:18.018Z,1006.70
2022-10-04T01:26:18.025Z,1006.68
2022-10-04T01:27:18.014Z,1006.60
2022-10-04T01:28:18.030Z,1006.61
2022-10-04T01:29:18.005Z,1006.63
2022-10-04T01:30:17.981Z,1006.76
2022-10-04T01:31:18.041Z,1006.70
2022-10-04T01:32:18.012Z,1006.84
2022-10-04T01:33:17.994Z,1006.74
2022-10-04T01:34:17.961Z,1006.84
2022-10-04T01:35:17.969Z,1006.88
2022-10-04T01:36:17.958Z,1006.88
2022-10-04T01:37:17.952Z,1006.92
2022-10-04T01:38:17.937Z,1006.93
2022-10-04T01:39:17.932Z,1007.00
2022-10-04T01:40:17.921Z,1006.96
2022-10-04T01:41:17.978Z,1007.00
2022-10-04T01:42:17.918Z,1006.99
2022-10-04T01:43:17.898Z,1006.95
2022-10-04T01:44:17.898Z,1006.91
2022-10-04T01:45:17.902Z,1006.86
2022-10-04T01:46:18.001Z,1006.88
2022-10-04T01:47:17.882Z,1006.87
2022-10-04T01:48:17.879Z,1006.78
2022-10-04T01:49:17.867Z,1006.77
2022-10-04T01:50:17.864Z,1006.66
2022-10-04T01:51:17.855Z,1006.74
2022-10-04T01:52:17.886Z,1006.64
2022-10-04T01:53:17.842Z,1006.69
2022-10-04T01:54:17.848Z,1006.66
2022-10-04T01:55:17.886Z,1006.65
2022-10-04T01:56:17.825Z,1006.70
2022-10-04T01:57:17.834Z,1006.66
2022-10-04T01:58:17.818Z,1006.61
2022-10-04T01:59:17.818Z,1006.55
2022-10-04T02:00:17.810Z,1006.56
2022-10-04T02:01:17.806Z,1006.43
2022-10-04T02:02:17.787Z,1006.40
2022-10-04T02:03:17.783Z,1006.37
2022-10-04T02:04:22.009Z,1006.33
2022-10-04T02:05:18.782Z,1006.33
2022-10-04T02:06:17.758Z,1006.36
2022-10-04T02:07:17.832Z,1006.39
2022-10-04T02:08:17.758Z,1006.37
2022-10-04T02:09:17.752Z,1006.35
2022-10-04T02:10:17.734Z,1006.36
2022-10-04T02:11:17.735Z,1006.35
2022-10-04T02:12:17.719Z,1006.34
2022-10-04T02:13:17.718Z,1006.29
2022-10-04T02:14:17.721Z,1006.29
2022-10-04T02:15:17.879Z,1006.34
2022-10-04T02:16:17.745Z,1006.39
2022-10-04T02:17:17.697Z,1006.39
2022-10-04T02:18:17.717Z,1006.39
2022-10-04T02:19:17.714Z,1006.35
2022-10-04T02:20:17.662Z,1006.32
2022-10-04T02:21:17.664Z,1006.27
2022-10-04T02:22:17.654Z,1006.35
2022-10-04T02:23:17.671Z,1006.36
2022-10-04T02:24:17.658Z,1006.42
2022-10-04T02:25:17.633Z,1006.44
2022-10-04T02:26:17.636Z,1006.39
2022-10-04T02:27:17.632Z,1006.45
2022-10-04T02:28:17.684Z,1006.43
2022-10-04T02:29:17.627Z,1006.41
2022-10-04T02:30:17.621Z,1006.41
2022-10-04T02:31:17.636Z,1006.39
2022-10-04T02:32:17.608Z,1006.42
2022-10-04T02:33:17.611Z,1006.38
2022-10-04T02:34:18.587Z,1006.42
2022-10-04T02:35:17.596Z,1006.40
2022-10-04T02:36:17.577Z,1006.41
2022-10-04T02:37:17.578Z,1006.33
2022-10-04T02:38:17.569Z,1006.24
2022-10-04T02:39:17.572Z,1006.27
2022-10-04T02:40:17.561Z,1006.32
2022-10-04T02:41:17.615Z,1006.32
2022-10-04T02:42:17.544Z,1006.32
2022-10-04T02:43:17.532Z,1006.27
2022-10-04T02:44:17.548Z,1006.31
2022-10-04T02:45:17.529Z,1006.29
2022-10-04T02:46:17.586Z,1006.27
2022-10-04T02:47:17.521Z,1006.30
2022-10-04T02:48:17.501Z,1006.24
2022-10-04T02:49:17.514Z,1006.28
2022-10-04T02:50:17.493Z,1006.25
2022-10-04T02:51:18.388Z,1006.23
2022-10-04T02:52:17.488Z,1006.23
2022-10-04T02:53:17.489Z,1006.22
2022-10-04T02:54:17.501Z,1006.28
2022-10-04T02:55:17.900Z,1006.30
2022-10-04T02:56:17.464Z,1006.31
2022-10-04T02:57:17.468Z,1006.24
2022-10-04T02:58:17.452Z,1006.16
2022-10-04T02:59:18.446Z,1006.18
2022-10-04T03:00:17.437Z,1006.11
2022-10-04T03:01:17.546Z,1006.13
2022-10-04T03:02:17.517Z,1006.13
2022-10-04T03:03:17.444Z,1006.12
2022-10-04T03:04:17.444Z,1006.13
2022-10-04T03:05:17.416Z,1006.15
2022-10-04T03:06:17.396Z,1006.13
2022-10-04T03:07:17.405Z,1006.15
2022-10-04T03:08:17.400Z,1006.22
2022-10-04T03:09:17.385Z,1006.15
2022-10-04T03:10:17.388Z,1006.06
2022-10-04T03:11:17.369Z,1006.08
2022-10-04T03:12:17.376Z,1006.04
2022-10-04T03:13:17.348Z,1006.06
2022-10-04T03:14:43.808Z,1006.04
2022-10-04T03:15:17.333Z,1006.01
2022-10-04T03:16:17.415Z,1006.01
2022-10-04T03:17:17.344Z,1006.01
2022-10-04T03:18:17.328Z,1005.99
2022-10-04T03:19:17.301Z,1005.99
2022-10-04T03:20:18.300Z,1005.93
2022-10-04T03:21:18.305Z,1005.91
2022-10-04T03:22:18.320Z,1005.91
2022-10-04T03:23:17.301Z,1005.91
2022-10-04T03:24:17.332Z,1005.92
2022-10-04T03:25:17.275Z,1005.96
2022-10-04T03:26:17.275Z,1005.98
2022-10-04T03:27:17.283Z,1005.96
2022-10-04T03:28:17.411Z,1006.01
2022-10-04T03:29:17.329Z,1006.04
2022-10-04T03:30:17.252Z,1006.02
2022-10-04T03:31:17.329Z,1006.06
2022-10-04T03:32:17.345Z,1006.03
2022-10-04T03:33:17.266Z,1005.96
2022-10-04T03:34:17.270Z,1005.92
2022-10-04T03:35:17.230Z,1005.94
2022-10-04T03:36:17.218Z,1005.94
2022-10-04T03:37:17.218Z,1005.98
2022-10-04T03:38:17.198Z,1005.96
2022-10-04T03:39:17.205Z,1006.05
2022-10-04T03:40:17.265Z,1005.99
2022-10-04T03:41:17.236Z,1006.02
2022-10-04T03:42:17.191Z,1006.01
2022-10-04T03:43:17.189Z,1006.00
2022-10-04T03:44:17.194Z,1006.01
2022-10-04T03:45:17.185Z,1006.00
2022-10-04T03:46:17.213Z,1005.97
2022-10-04T03:47:17.137Z,1006.01
2022-10-04T03:48:17.136Z,1006.01
2022-10-04T03:49:17.156Z,1006.04
2022-10-04T03:50:17.129Z,1006.06
2022-10-04T03:51:17.228Z,1006.10
2022-10-04T03:52:17.144Z,1006.10
2022-10-04T03:53:18.120Z,1006.05
2022-10-04T03:54:17.099Z,1006.11
2022-10-04T03:55:17.113Z,1006.02
2022-10-04T03:56:17.154Z,1006.04
2022-10-04T03:57:17.100Z,1006.07
2022-10-04T03:58:17.089Z,1006.04
2022-10-04T03:59:17.065Z,1006.05
2022-10-04T04:00:17.101Z,1006.06
2022-10-04T04:01:17.136Z,1006.02
2022-10-04T04:02:17.170Z,1006.03
2022-10-04T04:03:17.041Z,1006.02
2022-10-04T04:04:17.937Z,1006.04
2022-10-04T04:05:17.069Z,1006.00
2022-10-04T04:06:17.034Z,1005.91
2022-10-04T04:07:17.041Z,1005.98
2022-10-04T04:08:17.073Z,1005.98
2022-10-04T04:09:17.009Z,1005.98
2022-10-04T04:10:17.088Z,1006.01
2022-10-04T04:11:17.009Z,1005.96
2022-10-04T04:12:16.997Z,1005.93
2022-10-04T04:13:16.995Z,1005.95
2022-10-04T04:14:16.987Z,1005.93
2022-10-04T04:15:16.985Z,1005.90
2022-10-04T04:16:17.044Z,1005.92
2022-10-04T04:17:16.980Z,1005.89
2022-10-04T04:18:16.969Z,1005.90
2022-10-04T04:19:16.976Z,1005.91
2022-10-04T04:20:16.944Z,1005.99
2022-10-04T04:21:16.952Z,1006.00
2022-10-04T04:22:16.947Z,1006.03
2022-10-04T04:23:16.927Z,1005.99
2022-10-04T04:24:17.944Z,1005.94
2022-10-04T04:25:16.919Z,1005.98
2022-10-04T04:26:16.913Z,1005.97
2022-10-04T04:27:16.902Z,1005.93
2022-10-04T04:28:16.931Z,1005.97
2022-10-04T04:29:16.912Z,1005.98
2022-10-04T04:30:16.896Z,1005.96
2022-10-04T04:31:16.993Z,1005.96
2022-10-04T04:32:16.875Z,1005.94
2022-10-04T04:33:21.040Z,1006.01
2022-10-04T04:34:17.879Z,1006.01
2022-10-04T04:35:16.848Z,1005.94
2022-10-04T04:36:16.851Z,1005.94
2022-10-04T04:37:16.851Z,1005.94
2022-10-04T04:38:16.879Z,1005.91
2022-10-04T04:39:16.851Z,1005.87
2022-10-04T04:40:16.832Z,1005.79
2022-10-04T04:41:16.812Z,1005.84
2022-10-04T04:42:16.815Z,1005.76
2022-10-04T04:43:16.813Z,1005.75
2022-10-04T04:44:17.444Z,1005.79
2022-10-04T04:45:16.828Z,1005.74
2022-10-04T04:46:27.049Z,1005.72
2022-10-04T04:47:18.779Z,1005.77
2022-10-04T04:48:17.793Z,1005.72
2022-10-04T04:49:16.796Z,1005.85
2022-10-04T04:50:16.805Z,1005.78
2022-10-04T04:51:16.765Z,1005.82
2022-10-04T04:52:16.778Z,1005.85
2022-10-04T04:53:17.488Z,1005.86
2022-10-04T04:54:16.880Z,1005.91
2022-10-04T04:55:16.738Z,1005.93
2022-10-04T04:56:18.170Z,1005.89
2022-10-04T04:57:17.729Z,1005.87
2022-10-04T04:58:16.713Z,1005.90
2022-10-04T04:59:16.726Z,1005.87
2022-10-04T05:00:16.742Z,1005.79
2022-10-04T05:01:16.784Z,1005.81
2022-10-04T05:02:16.776Z,1005.82
2022-10-04T05:03:16.712Z,1005.83
2022-10-04T05:04:16.713Z,1005.79
2022-10-04T05:05:16.712Z,1005.84
2022-10-04T05:06:16.680Z,1005.82
2022-10-04T05:07:16.727Z,1005.74
2022-10-04T05:08:16.688Z,1005.81
2022-10-04T05:09:16.661Z,1005.77
2022-10-04T05:10:16.663Z,1005.76
2022-10-04T05:11:16.673Z,1005.73
2022-10-04T05:12:16.646Z,1005.78
2022-10-04T05:13:16.630Z,1005.68
2022-10-04T05:14:17.444Z,1005.70
2022-10-04T05:15:16.635Z,1005.72
2022-10-04T05:16:16.659Z,1005.71
2022-10-04T05:17:16.616Z,1005.74
2022-10-04T05:18:16.601Z,1005.71
2022-10-04T05:19:16.604Z,1005.72
2022-10-04T05:20:16.588Z,1005.67
2022-10-04T05:21:16.622Z,1005.62
2022-10-04T05:22:16.581Z,1005.67
2022-10-04T05:23:16.571Z,1005.68
2022-10-04T05:24:16.680Z,1005.67
2022-10-04T05:25:16.544Z,1005.64
2022-10-04T05:26:16.571Z,1005.62
2022-10-04T05:27:16.544Z,1005.62
2022-10-04T05:28:16.651Z,1005.66
2022-10-04T05:29:16.542Z,1005.71
2022-10-04T05:30:16.681Z,1005.67
2022-10-04T05:31:16.565Z,1005.69
2022-10-04T05:32:17.444Z,1005.68
2022-10-04T05:33:16.545Z,1005.71
2022-10-04T05:34:16.513Z,1005.68
2022-10-04T05:35:16.502Z,1005.66
2022-10-04T05:36:16.525Z,1005.69
2022-10-04T05:37:16.517Z,1005.58
2022-10-04T05:38:16.492Z,1005.59
2022-10-04T05:39:16.484Z,1005.67
2022-10-04T05:40:16.468Z,1005.62
2022-10-04T05:41:16.496Z,1005.62
2022-10-04T05:42:16.497Z,1005.62
2022-10-04T05:43:16.470Z,1005.66
2022-10-04T05:44:16.465Z,1005.69
2022-10-04T05:45:16.482Z,1005.62
2022-10-04T05:46:16.500Z,1005.67
2022-10-04T05:47:16.458Z,1005.64
2022-10-04T05:48:16.444Z,1005.67
2022-10-04T05:49:19.335Z,1005.74
2022-10-04T05:50:17.560Z,1005.80
2022-10-04T05:51:16.396Z,1005.79
2022-10-04T05:52:17.494Z,1005.82
2022-10-04T05:53:16.448Z,1005.76
2022-10-04T05:54:16.388Z,1005.73
2022-10-04T05:55:16.424Z,1005.70
2022-10-04T05:56:16.377Z,1005.73
2022-10-04T05:57:16.366Z,1005.71
2022-10-04T05:58:16.356Z,1005.72
2022-10-04T05:59:16.368Z,1005.72
2022-10-04T06:00:16.358Z,1005.71
2022-10-04T06:01:16.398Z,1005.73
2022-10-04T06:02:16.467Z,1005.73
2022-10-04T06:03:16.372Z,1005.73
2022-10-04T06:04:16.324Z,1005.79
2022-10-04T06:05:16.558Z,1005.77
2022-10-04T06:06:16.296Z,1005.74
2022-10-04T06:07:17.340Z,1005.79
2022-10-04T06:08:16.322Z,1005.75
2022-10-04T06:09:16.303Z,1005.76
2022-10-04T06:10:16.286Z,1005.68
2022-10-04T06:11:16.300Z,1005.70
2022-10-04T06:12:16.284Z,1005.73
2022-10-04T06:13:16.293Z,1005.71
2022-10-04T06:14:16.286Z,1005.73
2022-10-04T06:15:16.290Z,1005.78
2022-10-04T06:16:16.297Z,1005.84
2022-10-04T06:17:16.265Z,1005.86
2022-10-04T06:18:16.272Z,1005.84
2022-10-04T06:19:16.248Z,1005.85
2022-10-04T06:20:16.232Z,1005.84
2022-10-04T06:21:16.225Z,1005.84
2022-10-04T06:22:16.212Z,1005.86
2022-10-04T06:23:16.318Z,1005.86
2022-10-04T06:24:16.223Z,1005.91
2022-10-04T06:25:16.236Z,1005.91
2022-10-04T06:26:16.232Z,1005.93
2022-10-04T06:27:16.195Z,1005.90
2022-10-04T06:28:17.004Z,1005.92
2022-10-04T06:29:16.195Z,1005.93
2022-10-04T06:30:16.219Z,1005.95
2022-10-04T06:31:16.256Z,1005.95
2022-10-04T06:32:16.199Z,1005.92
2022-10-04T06:33:16.160Z,1005.93
2022-10-04T06:34:16.165Z,1005.92
2022-10-04T06:35:16.168Z,1005.94
2022-10-04T06:36:16.159Z,1005.95
2022-10-04T06:37:16.155Z,1005.99
2022-10-04T06:38:16.127Z,1006.01
2022-10-04T06:39:16.210Z,1006.05
2022-10-04T06:40:16.112Z,1006.01
2022-10-04T06:41:16.123Z,1006.00
2022-10-04T06:42:16.115Z,1006.06
2022-10-04T06:43:16.103Z,1006.07
2022-10-04T06:44:16.115Z,1006.04
2022-10-04T06:45:16.083Z,1006.04
2022-10-04T06:46:16.142Z,1006.07
2022-10-04T06:47:16.111Z,1006.07
2022-10-04T06:48:16.103Z,1006.03
2022-10-04T06:49:16.089Z,1006.05
2022-10-04T06:50:16.058Z,1005.99
2022-10-04T06:51:16.058Z,1005.93
2022-10-04T06:52:17.644Z,1005.96
2022-10-04T06:53:17.046Z,1005.93
2022-10-04T06:54:16.042Z,1005.91
2022-10-04T06:55:16.075Z,1005.95
2022-10-04T06:56:16.025Z,1006.03
2022-10-04T06:57:16.030Z,1005.95
2022-10-04T06:58:16.010Z,1005.92
2022-10-04T06:59:16.002Z,1005.96
2022-10-04T07:00:16.028Z,1005.96
2022-10-04T07:01:16.057Z,1005.91
2022-10-04T07:02:15.998Z,1005.97
2022-10-04T07:03:16.975Z,1006.01
2022-10-04T07:04:16.005Z,1006.08
2022-10-04T07:05:15.970Z,1006.09
2022-10-04T07:06:16.003Z,1006.13
2022-10-04T07:07:15.953Z,1006.16
2022-10-04T07:08:15.963Z,1006.16
2022-10-04T07:09:15.939Z,1006.19
2022-10-04T07:10:15.945Z,1006.22
2022-10-04T07:11:15.969Z,1006.25
2022-10-04T07:12:15.926Z,1006.19
2022-10-04T07:13:15.918Z,1006.23
2022-10-04T07:14:15.927Z,1006.26
2022-10-04T07:15:15.912Z,1006.28
2022-10-04T07:16:15.984Z,1006.24
2022-10-04T07:17:15.892Z,1006.23
2022-10-04T07:18:15.897Z,1006.26
2022-10-04T07:19:15.879Z,1006.30
2022-10-04T07:20:15.863Z,1006.29
2022-10-04T07:21:15.885Z,1006.31
2022-10-04T07:22:15.858Z,1006.26
2022-10-04T07:23:15.867Z,1006.34
2022-10-04T07:24:16.447Z,1006.35
2022-10-04T07:25:15.846Z,1006.39
2022-10-04T07:26:15.823Z,1006.36
2022-10-04T07:27:15.827Z,1006.30
2022-10-04T07:28:15.903Z,1006.26
2022-10-04T07:29:15.856Z,1006.29
2022-10-04T07:30:15.828Z,1006.19
2022-10-04T07:31:15.895Z,1006.24
2022-10-04T07:32:15.796Z,1006.21
2022-10-04T07:33:15.784Z,1006.24
2022-10-04T07:34:15.777Z,1006.22
2022-10-04T07:35:15.764Z,1006.22
2022-10-04T07:36:19.799Z,1006.21
2022-10-04T07:37:17.780Z,1006.17
2022-10-04T07:38:15.759Z,1006.24
2022-10-04T07:39:15.765Z,1006.18
2022-10-04T07:40:15.742Z,1006.18
2022-10-04T07:41:15.805Z,1006.18
2022-10-04T07:42:15.737Z,1006.20
2022-10-04T07:43:15.770Z,1006.22
2022-10-04T07:44:15.733Z,1006.18
2022-10-04T07:45:15.705Z,1006.24
2022-10-04T07:46:15.750Z,1006.23
2022-10-04T07:47:15.713Z,1006.22
2022-10-04T07:48:15.689Z,1006.23
2022-10-04T07:49:15.691Z,1006.17
2022-10-04T07:50:15.671Z,1006.14
2022-10-04T07:51:15.675Z,1006.16
2022-10-04T07:52:15.664Z,1006.18
2022-10-04T07:53:15.664Z,1006.15
2022-10-04T07:54:15.647Z,1006.22
2022-10-04T07:55:15.666Z,1006.16
2022-10-04T07:56:15.655Z,1006.22
2022-10-04T07:57:15.623Z,1006.19
2022-10-04T07:58:15.628Z,1006.20
2022-10-04T07:59:15.608Z,1006.13
2022-10-04T08:00:15.632Z,1006.14
2022-10-04T08:01:15.612Z,1006.13
2022-10-04T08:02:15.687Z,1006.08
2022-10-04T08:03:15.657Z,1006.12
2022-10-04T08:04:15.600Z,1006.12
2022-10-04T08:05:15.597Z,1006.04
2022-10-04T08:06:15.604Z,1006.05
2022-10-04T08:07:15.553Z,1006.04
2022-10-04T08:08:15.629Z,1006.02
2022-10-04T08:09:15.579Z,1006.07
2022-10-04T08:10:15.600Z,1006.00
2022-10-04T08:11:15.625Z,1006.01
2022-10-04T08:12:15.521Z,1006.03
2022-10-04T08:13:15.536Z,1005.96
2022-10-04T08:14:15.587Z,1005.96
2022-10-04T08:15:15.515Z,1006.01
2022-10-04T08:16:15.537Z,1005.90
2022-10-04T08:17:15.958Z,1005.88
2022-10-04T08:18:16.491Z,1005.89
2022-10-04T08:19:15.639Z,1005.84
2022-10-04T08:20:15.481Z,1005.82
2022-10-04T08:21:15.463Z,1005.80
2022-10-04T08:22:15.467Z,1005.77
2022-10-04T08:23:15.628Z,1005.84
2022-10-04T08:24:15.472Z,1005.80
2022-10-04T08:25:16.456Z,1005.82
2022-10-04T08:26:15.433Z,1005.74
2022-10-04T08:27:15.439Z,1005.77
2022-10-04T08:28:15.507Z,1005.75
2022-10-04T08:29:15.427Z,1005.78
2022-10-04T08:30:15.436Z,1005.80
2022-10-04T08:31:15.564Z,1005.78
2022-10-04T08:32:15.416Z,1005.83
2022-10-04T08:33:15.395Z,1005.79
2022-10-04T08:34:15.427Z,1005.89
2022-10-04T08:35:15.376Z,1006.03
2022-10-04T08:36:15.375Z,1005.93
2022-10-04T08:37:15.414Z,1005.97
2022-10-04T08:38:15.351Z,1005.93
2022-10-04T08:39:16.415Z,1005.83
2022-10-04T08:40:15.360Z,1005.85
2022-10-04T08:41:15.938Z,1005.92
2022-10-04T08:42:15.374Z,1005.89
2022-10-04T08:43:16.333Z,1005.97
2022-10-04T08:44:15.358Z,1005.98
2022-10-04T08:45:15.406Z,1005.95
2022-10-04T08:46:15.367Z,1006.02
2022-10-04T08:47:18.725Z,1006.00
2022-10-04T08:48:17.296Z,1005.96
2022-10-04T08:49:16.343Z,1005.95
2022-10-04T08:50:15.302Z,1005.83
2022-10-04T08:51:15.278Z,1005.87
2022-10-04T08:52:15.274Z,1005.70
2022-10-04T08:53:15.263Z,1005.59
2022-10-04T08:54:15.271Z,1005.70
2022-10-04T08:55:16.463Z,1005.78
2022-10-04T08:56:15.258Z,1005.89
2022-10-04T08:57:16.508Z,1005.93
2022-10-04T08:58:16.274Z,1005.98
2022-10-04T08:59:15.246Z,1005.90
2022-10-04T09:00:15.263Z,1005.89
2022-10-04T09:01:15.299Z,1005.87
2022-10-04T09:02:15.247Z,1005.83
2022-10-04T09:03:15.227Z,1005.88
2022-10-04T09:04:15.212Z,1005.84
2022-10-04T09:05:15.202Z,1005.91
2022-10-04T09:06:15.210Z,1005.84
2022-10-04T09:07:15.263Z,1005.79
2022-10-04T09:08:15.206Z,1005.84
2022-10-04T09:09:15.227Z,1005.75
2022-10-04T09:10:15.162Z,1005.75
2022-10-04T09:11:15.193Z,1005.97
2022-10-04T09:12:15.186Z,1005.91
2022-10-04T09:13:15.142Z,1005.96
2022-10-04T09:14:15.150Z,1006.00
2022-10-04T09:15:15.142Z,1005.97
2022-10-04T09:16:15.269Z,1005.87
2022-10-04T09:17:19.774Z,1005.87
2022-10-04T09:18:16.103Z,1005.83
2022-10-04T09:19:15.106Z,1005.66
2022-10-04T09:20:37.267Z,1005.61
2022-10-04T09:22:33.335Z,1005.62
2022-10-04T09:23:34.442Z,1005.66
2022-10-04T09:24:34.439Z,1005.80
2022-10-04T09:25:34.438Z,1005.72
2022-10-04T09:26:34.441Z,1005.70
2022-10-04T09:27:54.166Z,1005.71
2022-10-04T09:28:36.487Z,1005.69
2022-10-04T09:29:34.403Z,1005.79
2022-10-04T09:30:34.465Z,1005.73
2022-10-04T09:31:34.442Z,1005.79
2022-10-04T09:32:34.384Z,1005.83
2022-10-04T09:33:34.386Z,1005.87
2022-10-04T09:34:37.419Z,1005.84
2022-10-04T09:35:35.371Z,1005.68
2022-10-04T09:36:34.392Z,1005.61
2022-10-04T09:37:34.386Z,1005.53
2022-10-04T09:38:34.413Z,1005.41
2022-10-04T09:39:34.373Z,1005.39
2022-10-04T09:40:34.386Z,1005.42
2022-10-04T09:41:34.337Z,1005.38
2022-10-04T09:42:34.349Z,1005.66
2022-10-04T09:43:34.377Z,1005.69
2022-10-04T09:44:34.340Z,1005.69
2022-10-04T09:45:34.305Z,1005.76
2022-10-04T09:46:34.330Z,1005.72
2022-10-04T09:47:34.393Z,1005.65
2022-10-04T09:48:34.290Z,1005.72
2022-10-04T09:49:35.057Z,1005.61
2022-10-04T09:50:34.295Z,1005.54
2022-10-04T09:51:34.286Z,1005.66
2022-10-04T09:52:34.267Z,1005.68
2022-10-04T09:53:34.305Z,1005.70
2022-10-04T09:54:34.307Z,1005.72
2022-10-04T09:55:34.313Z,1005.64
2022-10-04T09:56:34.297Z,1005.74
2022-10-04T09:57:34.268Z,1005.61
2022-10-04T09:58:34.288Z,1005.66
2022-10-04T09:59:34.250Z,1005.70
2022-10-04T10:00:34.241Z,1005.61
2022-10-04T10:01:34.283Z,1005.57
2022-10-04T10:02:34.265Z,1005.58
2022-10-04T10:03:34.192Z,1005.59
2022-10-04T10:04:34.250Z,1005.51
2022-10-04T10:05:34.227Z,1005.54
2022-10-04T10:06:34.180Z,1005.58
2022-10-04T10:07:34.217Z,1005.55
2022-10-04T10:08:35.060Z,1005.62
2022-10-04T10:09:34.312Z,1005.60
2022-10-04T10:10:34.140Z,1005.54
2022-10-04T10:11:34.230Z,1005.51
2022-10-04T10:12:34.168Z,1005.44
2022-10-04T10:13:34.180Z,1005.51
2022-10-04T10:14:34.166Z,1005.43
2022-10-04T10:15:34.227Z,1005.44
2022-10-04T10:16:34.137Z,1005.41
2022-10-04T10:17:34.138Z,1005.43
2022-10-04T10:18:34.162Z,1005.41
2022-10-04T10:19:34.148Z,1005.39
2022-10-04T10:20:34.103Z,1005.37
2022-10-04T10:21:34.099Z,1005.35
2022-10-04T10:22:34.108Z,1005.31
2022-10-04T10:23:34.112Z,1005.27
2022-10-04T10:24:34.155Z,1005.21
2022-10-04T10:25:34.117Z,1005.21
2022-10-04T10:26:34.073Z,1005.27
2022-10-04T10:27:34.099Z,1005.19
2022-10-04T10:28:34.175Z,1005.17
2022-10-04T10:29:34.060Z,1005.13
2022-10-04T10:30:34.151Z,1005.01
2022-10-04T10:31:34.140Z,1005.03
2022-10-04T10:32:34.041Z,1004.97
2022-10-04T10:33:34.064Z,1004.97
2022-10-04T10:34:34.019Z,1005.01
2022-10-04T10:35:34.020Z,1004.98
2022-10-04T10:36:34.011Z,1004.86
2022-10-04T10:37:33.984Z,1004.87
2022-10-04T10:38:33.985Z,1004.94
2022-10-04T10:39:33.971Z,1004.90
2022-10-04T10:40:33.967Z,1004.91
2022-10-04T10:41:34.018Z,1004.94
2022-10-04T10:42:33.951Z,1004.79
2022-10-04T10:43:33.985Z,1004.83
2022-10-04T10:44:33.938Z,1004.77
2022-10-04T10:45:33.935Z,1004.77
2022-10-04T10:46:33.963Z,1004.75
2022-10-04T10:47:33.939Z,1004.69
2022-10-04T10:48:33.933Z,1004.63
2022-10-04T10:49:33.928Z,1004.63
2022-10-04T10:50:33.893Z,1004.56
2022-10-04T10:51:33.895Z,1004.63
2022-10-04T10:52:33.888Z,1004.51
2022-10-04T10:53:33.867Z,1004.53
2022-10-04T10:54:33.901Z,1004.54
2022-10-04T10:55:33.868Z,1004.57
2022-10-04T10:56:33.885Z,1004.52
2022-10-04T10:57:33.848Z,1004.49
2022-10-04T10:58:33.885Z,1004.46
2022-10-04T10:59:33.848Z,1004.54
2022-10-04T11:00:33.864Z,1004.50
2022-10-04T11:01:33.943Z,1004.51
2022-10-04T11:02:48.589Z,1004.48
2022-10-04T11:03:35.917Z,1004.43
2022-10-04T11:04:33.808Z,1004.47
2022-10-04T11:05:33.789Z,1004.43
2022-10-04T11:06:33.798Z,1004.47
2022-10-04T11:07:33.788Z,1004.52
2022-10-04T11:08:33.820Z,1004.43
2022-10-04T11:09:33.798Z,1004.38
2022-10-04T11:10:33.829Z,1004.34
2022-10-04T11:11:33.761Z,1004.31
2022-10-04T11:12:33.777Z,1004.32
2022-10-04T11:13:33.749Z,1004.33
2022-10-04T11:14:33.772Z,1004.39
2022-10-04T11:15:33.759Z,1004.26
2022-10-04T11:16:33.737Z,1004.23
2022-10-04T11:17:33.737Z,1004.19
2022-10-04T11:18:33.725Z,1004.28
2022-10-04T11:19:33.775Z,1004.27
2022-10-04T11:20:33.748Z,1004.30
2022-10-04T11:21:33.722Z,1004.27
2022-10-04T11:22:38.073Z,1004.34
2022-10-04T11:23:34.692Z,1004.30
2022-10-04T11:24:33.680Z,1004.37
2022-10-04T11:25:33.704Z,1004.30
2022-10-04T11:26:33.691Z,1004.31
2022-10-04T11:27:33.677Z,1004.22
2022-10-04T11:28:34.529Z,1004.39
2022-10-04T11:29:33.664Z,1004.34
2022-10-04T11:30:33.657Z,1004.30
2022-10-04T11:31:33.712Z,1004.24
2022-10-04T11:32:33.641Z,1004.25
2022-10-04T11:33:33.662Z,1004.26
2022-10-04T11:34:33.658Z,1004.25
2022-10-04T11:35:34.664Z,1004.25
2022-10-04T11:36:33.619Z,1004.16
2022-10-04T11:37:33.653Z,1004.24
2022-10-04T11:38:33.616Z,1004.20
2022-10-04T11:39:33.620Z,1004.25
2022-10-04T11:40:33.676Z,1004.15
2022-10-04T11:41:33.576Z,1004.14
2022-10-04T11:42:34.592Z,1004.18
2022-10-04T11:43:33.648Z,1004.15
2022-10-04T11:44:33.597Z,1004.16
2022-10-04T11:45:33.571Z,1004.22
2022-10-04T11:46:33.610Z,1004.16
2022-10-04T11:47:33.597Z,1004.18
2022-10-04T11:48:33.578Z,1004.15
2022-10-04T11:49:33.606Z,1004.09
2022-10-04T11:50:33.559Z,1004.18
2022-10-04T11:51:33.554Z,1004.11
2022-10-04T11:52:33.551Z,1004.18
2022-10-04T11:53:33.527Z,1004.20
2022-10-04T11:54:33.515Z,1004.24
2022-10-04T11:55:33.528Z,1004.23
2022-10-04T11:56:33.510Z,1004.19
2022-10-04T11:57:33.672Z,1004.11
2022-10-04T11:58:33.498Z,1004.00
2022-10-04T11:59:33.514Z,1004.00
2022-10-04T12:00:33.691Z,1004.03
2022-10-04T12:01:33.466Z,1003.97
2022-10-04T12:02:33.474Z,1004.00
2022-10-04T12:03:33.621Z,1004.02
2022-10-04T12:04:33.518Z,1003.93
2022-10-04T12:05:33.447Z,1003.89
2022-10-04T12:06:33.451Z,1003.89